Home > Products > Valid Products > TAF

000
FTUS43 KGLD 062327
TAFMCK
TAF
KMCK 062327Z 0700/0724 02015G23KT 2SM FU SCT080
     FM070200 03009KT 4SM FU SCT100
     FM070400 01004KT P6SM SCT150
     FM071500 07007KT P6SM SCT250=



000
FTUS43 KGLD 062327
TAFGLD
TAF
KGLD 062327Z 0700/0724 02015G22KT 5SM FU BKN050
     FM070600 02005KT P6SM SCT130
     FM071700 09009KT P6SM SCT200=



000
FTUS43 KGLD 062327
TAFMCK
TAF
KMCK 062327Z 0700/0724 02015G23KT 2SM FU SCT080
     FM070200 03009KT 4SM FU SCT100
     FM070400 01004KT P6SM SCT150
     FM071500 07007KT P6SM SCT250=



000
FTUS43 KGLD 062010 AAA
TAFMCK
TAF AMD
KMCK 062010Z 0620/0718 01016G24KT P6SM -SHRA OVC035
      TEMPO 0620/0621 4SM HZ BKN060
     FM062100 03014G24KT P6SM BKN060
     FM070100 02006KT P6SM BKN150
     FM070600 VRB04KT P6SM FEW120
     FM071200 11005KT 6SM BR SCT120=



000
FTUS43 KGLD 062010 AAA
TAFMCK
TAF AMD
KMCK 062010Z 0620/0718 01016G24KT P6SM -SHRA OVC035
      TEMPO 0620/0621 4SM HZ BKN060
     FM062100 03014G24KT P6SM BKN060
     FM070100 02006KT P6SM BKN150
     FM070600 VRB04KT P6SM FEW120
     FM071200 11005KT 6SM BR SCT120=



000
FTUS43 KGLD 062010 AAA
TAFMCK
TAF AMD
KMCK 062010Z 0620/0718 01016G24KT P6SM -SHRA OVC035
      TEMPO 0620/0621 4SM HZ BKN060
     FM062100 03014G24KT P6SM BKN060
     FM070100 02006KT P6SM BKN150
     FM070600 VRB04KT P6SM FEW120
     FM071200 11005KT 6SM BR SCT120=



000
FTUS43 KGLD 062010 AAA
TAFMCK
TAF AMD
KMCK 062010Z 0620/0718 01016G24KT P6SM -SHRA OVC035
      TEMPO 0620/0621 4SM HZ BKN060
     FM062100 03014G24KT P6SM BKN060
     FM070100 02006KT P6SM BKN150
     FM070600 VRB04KT P6SM FEW120
     FM071200 11005KT 6SM BR SCT120=



000
FTUS43 KGLD 062009 AAA
TAFGLD
TAF AMD
KGLD 062009Z 0620/0718 01015G25KT P6SM -SHRA SCT015 OVC025
      TEMPO 0620/0621 5SM BR BKN015
     FM062100 02015G25KT P6SM -SHRA BKN050
     FM070100 03008KT P6SM BKN100
     FM070600 VRB05KT P6SM SCT120
     FM071200 14010KT 6SM BR SCT120=



000
FTUS43 KGLD 061720
TAFGLD
TAF
KGLD 061720Z 0618/0718 01020G30KT P6SM -SHRA SCT009 OVC015
      TEMPO 0618/0620 5SM BR BKN009
     FM062000 02015G25KT P6SM -SHRA BKN050
     FM070100 03008KT P6SM BKN100
     FM070600 VRB05KT P6SM SCT120
     FM071200 14010KT 6SM BR SCT120=



000
FTUS43 KGLD 061720
TAFMCK
TAF
KMCK 061720Z 0618/0718 01016G24KT P6SM -SHRA OVC022
      TEMPO 0618/0620 BKN060
     FM062000 03017G25KT P6SM BKN060
     FM070100 02006KT P6SM BKN150
     FM070600 VRB04KT P6SM FEW120
     FM071200 11005KT 6SM BR SCT120=



000
FTUS43 KGLD 061720
TAFGLD
TAF
KGLD 061720Z 0618/0718 01020G30KT P6SM -SHRA SCT009 OVC015
      TEMPO 0618/0620 5SM BR BKN009
     FM062000 02015G25KT P6SM -SHRA BKN050
     FM070100 03008KT P6SM BKN100
     FM070600 VRB05KT P6SM SCT120
     FM071200 14010KT 6SM BR SCT120=



000
FTUS43 KGLD 061720
TAFMCK
TAF
KMCK 061720Z 0618/0718 01016G24KT P6SM -SHRA OVC022
      TEMPO 0618/0620 BKN060
     FM062000 03017G25KT P6SM BKN060
     FM070100 02006KT P6SM BKN150
     FM070600 VRB04KT P6SM FEW120
     FM071200 11005KT 6SM BR SCT120=



000
FTUS43 KGLD 061720
TAFMCK
TAF
KMCK 061720Z 0618/0718 01016G24KT P6SM -SHRA OVC022
      TEMPO 0618/0620 BKN060
     FM062000 03017G25KT P6SM BKN060
     FM070100 02006KT P6SM BKN150
     FM070600 VRB04KT P6SM FEW120
     FM071200 11005KT 6SM BR SCT120=



000
FTUS43 KGLD 061137
TAFMCK
TAF
KMCK 061137Z 0612/0712 35016G24KT P6SM -SHRA OVC020
     FM061500 36020G33KT P6SM BKN025
     FM062100 03017G25KT P6SM BKN060
     FM070100 02006KT P6SM BKN150
     FM070600 VRB04KT P6SM FEW120=



000
FTUS43 KGLD 061137
TAFGLD
TAF
KGLD 061137Z 0612/0712 36020G30KT P6SM -SHRA OVC009
      TEMPO 0612/0616 SCT007 BKN015
     FM061600 01022G32KT P6SM BKN025
     FM062100 02015G23KT P6SM BKN050
     FM070100 03008KT P6SM BKN100
     FM070600 VRB05KT P6SM SCT120=



000
FTUS43 KGLD 061137
TAFMCK
TAF
KMCK 061137Z 0612/0712 35016G24KT P6SM -SHRA OVC020
     FM061500 36020G33KT P6SM BKN025
     FM062100 03017G25KT P6SM BKN060
     FM070100 02006KT P6SM BKN150
     FM070600 VRB04KT P6SM FEW120=



000
FTUS43 KGLD 061137
TAFMCK
TAF
KMCK 061137Z 0612/0712 35016G24KT P6SM -SHRA OVC020
     FM061500 36020G33KT P6SM BKN025
     FM062100 03017G25KT P6SM BKN060
     FM070100 02006KT P6SM BKN150
     FM070600 VRB04KT P6SM FEW120=



000
FTUS43 KGLD 061137
TAFGLD
TAF
KGLD 061137Z 0612/0712 36020G30KT P6SM -SHRA OVC009
      TEMPO 0612/0616 SCT007 BKN015
     FM061600 01022G32KT P6SM BKN025
     FM062100 02015G23KT P6SM BKN050
     FM070100 03008KT P6SM BKN100
     FM070600 VRB05KT P6SM SCT120=



000
FTUS43 KGLD 061137
TAFMCK
TAF
KMCK 061137Z 0612/0712 35016G24KT P6SM -SHRA OVC020
     FM061500 36020G33KT P6SM BKN025
     FM062100 03017G25KT P6SM BKN060
     FM070100 02006KT P6SM BKN150
     FM070600 VRB04KT P6SM FEW120=



000
FTUS43 KGLD 061017 AAA
TAFGLD
TAF AMD
KGLD 061017Z 0610/0706 34015G22KT P6SM -SHRA OVC007
      TEMPO 0611/0615 SCT007 BKN015
     FM061600 36019G29KT P6SM BKN040
     FM062300 02013G19KT P6SM BKN060
     FM070200 03006KT P6SM BKN110=



000
FTUS43 KGLD 061017 AAA
TAFGLD
TAF AMD
KGLD 061017Z 0610/0706 34015G22KT P6SM -SHRA OVC007
      TEMPO 0611/0615 SCT007 BKN015
     FM061600 36019G29KT P6SM BKN040
     FM062300 02013G19KT P6SM BKN060
     FM070200 03006KT P6SM BKN110=



000
FTUS43 KGLD 060525
TAFMCK
TAF
KMCK 060525Z 0606/0706 VRB05KT P6SM VCTS BKN090CB WS020/21035KT
     FM060800 32015KT P6SM VCTS BKN090CB
     FM061200 35014KT P6SM VCTS BKN020CB
     FM061600 36020G33KT P6SM BKN070
     FM062300 03013KT P6SM BKN150
     FM070200 04005KT P6SM SCT100=



000
FTUS43 KGLD 060525
TAFGLD
TAF
KGLD 060525Z 0606/0706 30009KT P6SM VCTS OVC090CB
     FM061100 35012KT P6SM VCTS BKN020CB
     FM061600 36019G29KT P6SM BKN040
     FM062300 02013G19KT P6SM BKN060
     FM070200 03006KT P6SM BKN110=



000
FTUS43 KGLD 060525
TAFMCK
TAF
KMCK 060525Z 0606/0706 VRB05KT P6SM VCTS BKN090CB WS020/21035KT
     FM060800 32015KT P6SM VCTS BKN090CB
     FM061200 35014KT P6SM VCTS BKN020CB
     FM061600 36020G33KT P6SM BKN070
     FM062300 03013KT P6SM BKN150
     FM070200 04005KT P6SM SCT100=



000
FTUS43 KGLD 060525
TAFMCK
TAF
KMCK 060525Z 0606/0706 VRB05KT P6SM VCTS BKN090CB WS020/21035KT
     FM060800 32015KT P6SM VCTS BKN090CB
     FM061200 35014KT P6SM VCTS BKN020CB
     FM061600 36020G33KT P6SM BKN070
     FM062300 03013KT P6SM BKN150
     FM070200 04005KT P6SM SCT100=



000
FTUS43 KGLD 060525
TAFMCK
TAF
KMCK 060525Z 0606/0706 VRB05KT P6SM VCTS BKN090CB WS020/21035KT
     FM060800 32015KT P6SM VCTS BKN090CB
     FM061200 35014KT P6SM VCTS BKN020CB
     FM061600 36020G33KT P6SM BKN070
     FM062300 03013KT P6SM BKN150
     FM070200 04005KT P6SM SCT100=



000
FTUS43 KGLD 060525
TAFGLD
TAF
KGLD 060525Z 0606/0706 30009KT P6SM VCTS OVC090CB
     FM061100 35012KT P6SM VCTS BKN020CB
     FM061600 36019G29KT P6SM BKN040
     FM062300 02013G19KT P6SM BKN060
     FM070200 03006KT P6SM BKN110=



000
FTUS43 KGLD 052320
TAFMCK
TAF
KMCK 052320Z 0600/0624 15013KT P6SM VCTS SCT090CB BKN150
     FM060100 18014KT P6SM VCTS SCT090CB BKN150
      TEMPO 0601/0605 TSRA BKN090CB
     FM060500 31012KT P6SM VCTS BKN090CB
     FM061200 35016KT P6SM BKN020
     FM061600 36018G28KT P6SM BKN040
     FM062300 03016G23KT P6SM BKN120=



000
FTUS43 KGLD 052320
TAFGLD
TAF
KGLD 052320Z 0600/0624 19015KT P6SM VCTS SCT090CB BKN130
      TEMPO 0600/0603 TSRA BKN090CB
     FM060300 22012KT P6SM -TSRA BKN090CB
     FM060700 32011KT P6SM VCTS BKN090CB
     FM061000 35010KT P6SM OVC020
     FM061800 36017G27KT P6SM BKN035=



000
FTUS43 KGLD 052320
TAFMCK
TAF
KMCK 052320Z 0600/0624 15013KT P6SM VCTS SCT090CB BKN150
     FM060100 18014KT P6SM VCTS SCT090CB BKN150
      TEMPO 0601/0605 TSRA BKN090CB
     FM060500 31012KT P6SM VCTS BKN090CB
     FM061200 35016KT P6SM BKN020
     FM061600 36018G28KT P6SM BKN040
     FM062300 03016G23KT P6SM BKN120=



000
FTUS43 KGLD 052226 AAA
TAFMCK
TAF AMD
KMCK 052226Z 0522/0618 18015G23KT P6SM VCTS SCT090CB BKN150
     FM060400 30016G20KT P6SM -TSRA SCT070CB BKN090
     FM060800 35010KT P6SM SCT090 OVC200
     FM061300 35018KT P6SM OVC010
     FM061700 36018G25KT P6SM SCT020 BKN150=



000
FTUS43 KGLD 052226 AAA
TAFMCK
TAF AMD
KMCK 052226Z 0522/0618 18015G23KT P6SM VCTS SCT090CB BKN150
     FM060400 30016G20KT P6SM -TSRA SCT070CB BKN090
     FM060800 35010KT P6SM SCT090 OVC200
     FM061300 35018KT P6SM OVC010
     FM061700 36018G25KT P6SM SCT020 BKN150=



000
FTUS43 KGLD 052226 AAA
TAFMCK
TAF AMD
KMCK 052226Z 0522/0618 18015G23KT P6SM VCTS SCT090CB BKN150
     FM060400 30016G20KT P6SM -TSRA SCT070CB BKN090
     FM060800 35010KT P6SM SCT090 OVC200
     FM061300 35018KT P6SM OVC010
     FM061700 36018G25KT P6SM SCT020 BKN150=



000
FTUS43 KGLD 051757 CCA
TAFGLD
TAF COR
KGLD 051757Z 0518/0618 19015G25KT P6SM SKC
     FM060400 20015G20KT P6SM VCTS OVC100CB
     FM060600 30011KT P6SM VCTS OVC100CB
     FM060700 33009KT P6SM OVC100
     FM061300 35015KT P6SM BKN012=



000
FTUS43 KGLD 051741
TAFGLD
TAF
KGLD 051741Z 0518/0618 19015G20KT P6SM SKC
     FM052300 19020G28KT P6SM FEW100
     FM060400 20015G20KT P6SM VCTS OVC100CB
     FM060600 30011KT P6SM VCTS OVC100CB
     FM060700 33009KT P6SM OVC100
     FM061300 35015KT P6SM BKN012=



000
FTUS43 KGLD 051741
TAFMCK
TAF
KMCK 051741Z 0518/0618 15015G20KT P6SM SKC
     FM052100 18017G23KT P6SM SKC
     FM060500 30016G20KT P6SM VCTS BKN090CB
     FM060900 35010KT P6SM OVC200
     FM061300 35018KT P6SM OVC010
     FM061700 36018G25KT P6SM SCT020 BKN150=



000
FTUS43 KGLD 051741
TAFMCK
TAF
KMCK 051741Z 0518/0618 15015G20KT P6SM SKC
     FM052100 18017G23KT P6SM SKC
     FM060500 30016G20KT P6SM VCTS BKN090CB
     FM060900 35010KT P6SM OVC200
     FM061300 35018KT P6SM OVC010
     FM061700 36018G25KT P6SM SCT020 BKN150=



000
FTUS43 KGLD 051741
TAFMCK
TAF
KMCK 051741Z 0518/0618 15015G20KT P6SM SKC
     FM052100 18017G23KT P6SM SKC
     FM060500 30016G20KT P6SM VCTS BKN090CB
     FM060900 35010KT P6SM OVC200
     FM061300 35018KT P6SM OVC010
     FM061700 36018G25KT P6SM SCT020 BKN150=



000
FTUS43 KGLD 051741
TAFGLD
TAF
KGLD 051741Z 0518/0618 19015G20KT P6SM SKC
     FM052300 19020G28KT P6SM FEW100
     FM060400 20015G20KT P6SM VCTS OVC100CB
     FM060600 30011KT P6SM VCTS OVC100CB
     FM060700 33009KT P6SM OVC100
     FM061300 35015KT P6SM BKN012=



000
FTUS43 KGLD 051741
TAFMCK
TAF
KMCK 051741Z 0518/0618 15015G20KT P6SM SKC
     FM052100 18017G23KT P6SM SKC
     FM060500 30016G20KT P6SM VCTS BKN090CB
     FM060900 35010KT P6SM OVC200
     FM061300 35018KT P6SM OVC010
     FM061700 36018G25KT P6SM SCT020 BKN150=



000
FTUS43 KGLD 051141
TAFMCK
TAF
KMCK 051141Z 0512/0612 18012KT P6SM FEW120 BKN250
     FM051800 18017G25KT P6SM FEW250
     FM060200 20016KT P6SM VCTS SCT080CB BKN250
     FM060400 25014KT 6SM -TSRA BKN060CB
     FM060800 34015G23KT P6SM BKN025=



000
FTUS43 KGLD 051141
TAFGLD
TAF
KGLD 051141Z 0512/0612 18012KT P6SM FEW120 SCT250
     FM051700 18023G32KT P6SM FEW250
     FM060100 19017KT P6SM VCTS SCT070CB BKN250
     FM060300 22014KT 6SM -TSRA BKN060CB
     FM060700 34015G22KT P6SM BKN020=



000
FTUS43 KGLD 051141
TAFMCK
TAF
KMCK 051141Z 0512/0612 18012KT P6SM FEW120 BKN250
     FM051800 18017G25KT P6SM FEW250
     FM060200 20016KT P6SM VCTS SCT080CB BKN250
     FM060400 25014KT 6SM -TSRA BKN060CB
     FM060800 34015G23KT P6SM BKN025=



000
FTUS43 KGLD 051141
TAFMCK
TAF
KMCK 051141Z 0512/0612 18012KT P6SM FEW120 BKN250
     FM051800 18017G25KT P6SM FEW250
     FM060200 20016KT P6SM VCTS SCT080CB BKN250
     FM060400 25014KT 6SM -TSRA BKN060CB
     FM060800 34015G23KT P6SM BKN025=



000
FTUS43 KGLD 051141
TAFGLD
TAF
KGLD 051141Z 0512/0612 18012KT P6SM FEW120 SCT250
     FM051700 18023G32KT P6SM FEW250
     FM060100 19017KT P6SM VCTS SCT070CB BKN250
     FM060300 22014KT 6SM -TSRA BKN060CB
     FM060700 34015G22KT P6SM BKN020=



000
FTUS43 KGLD 051141
TAFMCK
TAF
KMCK 051141Z 0512/0612 18012KT P6SM FEW120 BKN250
     FM051800 18017G25KT P6SM FEW250
     FM060200 20016KT P6SM VCTS SCT080CB BKN250
     FM060400 25014KT 6SM -TSRA BKN060CB
     FM060800 34015G23KT P6SM BKN025=



000
FTUS43 KGLD 050520
TAFMCK
TAF
KMCK 050520Z 0506/0606 14010KT P6SM BKN250
     FM051700 17014G20KT P6SM FEW250
     FM052000 19022G31KT P6SM FEW250
     FM060200 19016KT P6SM SCT250
     FM060400 22012KT P6SM VCTS SCT090CB BKN250=



000
FTUS43 KGLD 050520
TAFGLD
TAF
KGLD 050520Z 0506/0606 16015KT P6SM BKN250
     FM051000 18010KT P6SM SCT250
     FM051700 18023G32KT P6SM FEW250
     FM060100 19017KT P6SM SCT250
     FM060300 21014KT P6SM VCTS SCT090CB BKN250=



000
FTUS43 KGLD 050520
TAFMCK
TAF
KMCK 050520Z 0506/0606 14010KT P6SM BKN250
     FM051700 17014G20KT P6SM FEW250
     FM052000 19022G31KT P6SM FEW250
     FM060200 19016KT P6SM SCT250
     FM060400 22012KT P6SM VCTS SCT090CB BKN250=



000
FTUS43 KGLD 050520
TAFMCK
TAF
KMCK 050520Z 0506/0606 14010KT P6SM BKN250
     FM051700 17014G20KT P6SM FEW250
     FM052000 19022G31KT P6SM FEW250
     FM060200 19016KT P6SM SCT250
     FM060400 22012KT P6SM VCTS SCT090CB BKN250=



000
FTUS43 KGLD 050520
TAFGLD
TAF
KGLD 050520Z 0506/0606 16015KT P6SM BKN250
     FM051000 18010KT P6SM SCT250
     FM051700 18023G32KT P6SM FEW250
     FM060100 19017KT P6SM SCT250
     FM060300 21014KT P6SM VCTS SCT090CB BKN250=



000
FTUS43 KGLD 050520
TAFMCK
TAF
KMCK 050520Z 0506/0606 14010KT P6SM BKN250
     FM051700 17014G20KT P6SM FEW250
     FM052000 19022G31KT P6SM FEW250
     FM060200 19016KT P6SM SCT250
     FM060400 22012KT P6SM VCTS SCT090CB BKN250=



000
FTUS43 KGLD 042320
TAFGLD
TAF
KGLD 042320Z 0500/0524 16017G23KT P6SM FEW080 SCT250
     FM050400 17014KT P6SM SCT250
     FM051000 18009KT P6SM FEW250
     FM051600 18015G22KT P6SM FEW250
     FM052100 19023G32KT P6SM FEW100 SCT250=



000
FTUS43 KGLD 042320
TAFMCK
TAF
KMCK 042320Z 0500/0524 15015G23KT P6SM SCT250
     FM050300 15011KT P6SM SCT080 SCT250
     FM051500 17013G18KT P6SM FEW250
     FM052000 19018G28KT P6SM FEW100 SCT250=



000
FTUS43 KGLD 042320
TAFGLD
TAF
KGLD 042320Z 0500/0524 16017G23KT P6SM FEW080 SCT250
     FM050400 17014KT P6SM SCT250
     FM051000 18009KT P6SM FEW250
     FM051600 18015G22KT P6SM FEW250
     FM052100 19023G32KT P6SM FEW100 SCT250=



000
FTUS43 KGLD 042320
TAFMCK
TAF
KMCK 042320Z 0500/0524 15015G23KT P6SM SCT250
     FM050300 15011KT P6SM SCT080 SCT250
     FM051500 17013G18KT P6SM FEW250
     FM052000 19018G28KT P6SM FEW100 SCT250=



000
FTUS43 KGLD 042320
TAFMCK
TAF
KMCK 042320Z 0500/0524 15015G23KT P6SM SCT250
     FM050300 15011KT P6SM SCT080 SCT250
     FM051500 17013G18KT P6SM FEW250
     FM052000 19018G28KT P6SM FEW100 SCT250=



000
FTUS43 KGLD 042320
TAFMCK
TAF
KMCK 042320Z 0500/0524 15015G23KT P6SM SCT250
     FM050300 15011KT P6SM SCT080 SCT250
     FM051500 17013G18KT P6SM FEW250
     FM052000 19018G28KT P6SM FEW100 SCT250=



000
FTUS43 KGLD 041739
TAFMCK
TAF
KMCK 041739Z 0418/0518 16013G23KT P6SM SKC
     FM050300 15011KT P6SM FEW080
     FM050900 15007KT P6SM SCT110 WS010/18035KT
     FM051300 14010KT P6SM FEW110
     FM051600 16015G20KT P6SM SKC=



000
FTUS43 KGLD 041739
TAFMCK
TAF
KMCK 041739Z 0418/0518 16013G23KT P6SM SKC
     FM050300 15011KT P6SM FEW080
     FM050900 15007KT P6SM SCT110 WS010/18035KT
     FM051300 14010KT P6SM FEW110
     FM051600 16015G20KT P6SM SKC=



000
FTUS43 KGLD 041739
TAFGLD
TAF
KGLD 041739Z 0418/0518 18017G22KT P6SM SKC
     FM050300 17017KT P6SM SCT070
     FM051600 18015G23KT P6SM SKC=



000
FTUS43 KGLD 041304 AAA
TAFMCK
TAF AMD
KMCK 041304Z 0413/0512 10006KT 6SM HZ SKC
     FM041500 16012KT P6SM SCT120
     FM041800 16015G23KT P6SM SCT070
     FM050000 15013KT P6SM VCTS BKN050CB
     FM050600 14010KT P6SM SCT120=



000
FTUS43 KGLD 041304 AAA
TAFMCK
TAF AMD
KMCK 041304Z 0413/0512 10006KT 6SM HZ SKC
     FM041500 16012KT P6SM SCT120
     FM041800 16015G23KT P6SM SCT070
     FM050000 15013KT P6SM VCTS BKN050CB
     FM050600 14010KT P6SM SCT120=



000
FTUS43 KGLD 041303 AAA
TAFGLD
TAF AMD
KGLD 041303Z 0413/0512 16012KT P6SM FEW090
     FM041500 16015G25KT P6SM SCT120
     FM042200 17018G28KT P6SM VCTS BKN060CB
     FM050300 16015KT P6SM SCT120=



000
FTUS43 KGLD 041303 AAA
TAFGLD
TAF AMD
KGLD 041303Z 0413/0512 16012KT P6SM FEW090
     FM041500 16015G25KT P6SM SCT120
     FM042200 17018G28KT P6SM VCTS BKN060CB
     FM050300 16015KT P6SM SCT120=



000
FTUS43 KGLD 041159 CCA
TAFMCK
TAF COR
KMCK 041159Z 0412/0512 12006KT 5SM BR SCT250
     FM041500 16012KT P6SM SCT120
     FM041800 16015G23KT P6SM SCT070
     FM050000 15013KT P6SM VCTS BKN050CB
     FM050600 14010KT P6SM SCT120=



000
FTUS43 KGLD 041159 CCA
TAFMCK
TAF COR
KMCK 041159Z 0412/0512 12006KT 5SM BR SCT250
     FM041500 16012KT P6SM SCT120
     FM041800 16015G23KT P6SM SCT070
     FM050000 15013KT P6SM VCTS BKN050CB
     FM050600 14010KT P6SM SCT120=



000
FTUS43 KGLD 041159 CCA
TAFMCK
TAF COR
KMCK 041159Z 0412/0512 12006KT 5SM BR SCT250
     FM041500 16012KT P6SM SCT120
     FM041800 16015G23KT P6SM SCT070
     FM050000 15013KT P6SM VCTS BKN050CB
     FM050600 14010KT P6SM SCT120=



000
FTUS43 KGLD 041143
TAFGLD
TAF
KGLD 041143Z 0412/0512 16012KT 5SM BR SCT100
     FM041500 16015G25KT P6SM SCT120
     FM042200 17018G28KT P6SM VCTS BKN060CB
     FM050300 16015KT P6SM SCT120=



000
FTUS43 KGLD 041143
TAFMCK
TAF
KMCK 041143Z 0412/0512 12006KT 6SM BR SCT250
     FM041500 16012KT P6SM SCT120
     FM041800 16015G23KT P6SM SCT070
     FM050000 15013KT P6SM VCTS BKN050CB
     FM050600 14010KT P6SM SCT120=



000
FTUS43 KGLD 041143
TAFMCK
TAF
KMCK 041143Z 0412/0512 12006KT 6SM BR SCT250
     FM041500 16012KT P6SM SCT120
     FM041800 16015G23KT P6SM SCT070
     FM050000 15013KT P6SM VCTS BKN050CB
     FM050600 14010KT P6SM SCT120=



000
FTUS43 KGLD 040520
TAFGLD
TAF
KGLD 040520Z 0406/0506 15008KT P6SM BKN200
     FM041400 16015G25KT P6SM SCT120
     FM050200 16013G22KT P6SM VCTS BKN060CB=



000
FTUS43 KGLD 040520
TAFMCK
TAF
KMCK 040520Z 0406/0506 14006KT P6SM BKN250
     FM041600 16012G20KT P6SM SCT060
     FM050000 15013KT P6SM VCTS BKN050CB=



    US Dept of Commerce
    National Oceanic and Atmospheric Administration
    National Weather Service
    1325 East West Highway
    Silver Spring, MD 20910
    Page Author: NWS Internet Services Team
Disclaimer
Information Quality
Credits
Glossary
Privacy Policy
Freedom of Information Act (FOIA)
About Us
Career Opportunities